createdAt,value
2023-04-06T00:00:55.215Z,75.60
2023-04-06T00:03:22.109Z,75.60
2023-04-06T00:05:49.666Z,76.40
2023-04-06T00:08:16.784Z,76.50
2023-04-06T00:10:43.784Z,76.80
2023-04-06T00:13:11.013Z,77.10
2023-04-06T00:15:37.846Z,77.40
2023-04-06T00:18:04.883Z,77.60
2023-04-06T00:20:31.849Z,77.70
2023-04-06T00:22:58.698Z,77.40
2023-04-06T00:25:25.625Z,76.90
2023-04-06T00:27:52.537Z,77.40
2023-04-06T00:30:19.547Z,77.30
2023-04-06T00:32:46.416Z,77.00
2023-04-06T00:35:13.300Z,77.00
2023-04-06T00:37:40.153Z,77.20
2023-04-06T00:40:07.650Z,77.00
2023-04-06T00:42:34.533Z,77.20
2023-04-06T00:45:02.550Z,77.10
2023-04-06T00:47:29.674Z,77.50
2023-04-06T00:49:56.576Z,77.50
2023-04-06T00:52:23.406Z,77.50
2023-04-06T00:54:51.489Z,77.50
2023-04-06T00:57:19.134Z,77.50
2023-04-06T00:59:46.090Z,77.80
2023-04-06T01:02:13.182Z,78.00
2023-04-06T01:04:40.353Z,77.70
2023-04-06T01:07:07.118Z,77.40
2023-04-06T01:09:35.086Z,77.50
2023-04-06T01:12:02.159Z,77.90
2023-04-06T01:14:29.203Z,77.90
2023-04-06T01:16:58.903Z,77.80
2023-04-06T01:19:25.768Z,77.90
2023-04-06T01:21:54.198Z,77.90
2023-04-06T01:24:21.831Z,77.80
2023-04-06T01:26:49.334Z,77.70
2023-04-06T01:29:16.245Z,78.00
2023-04-06T01:31:43.283Z,78.20
2023-04-06T01:34:10.149Z,78.10
2023-04-06T01:36:37.014Z,78.10
2023-04-06T01:39:03.888Z,78.60
2023-04-06T01:41:30.740Z,78.20
2023-04-06T01:43:57.764Z,78.30
2023-04-06T01:46:24.549Z,78.30
2023-04-06T01:48:51.391Z,78.70
2023-04-06T01:51:18.321Z,78.60
2023-04-06T01:53:45.492Z,78.40
2023-04-06T01:56:12.282Z,78.50
2023-04-06T01:58:39.055Z,79.00
2023-04-06T02:01:05.905Z,78.90
2023-04-06T02:03:32.823Z,78.70
2023-04-06T02:05:59.683Z,79.70
2023-04-06T02:08:26.543Z,80.00
2023-04-06T02:10:53.384Z,79.60
2023-04-06T02:13:20.342Z,80.40
2023-04-06T02:15:47.219Z,80.00
2023-04-06T02:18:14.098Z,80.00
2023-04-06T02:20:40.823Z,79.80
2023-04-06T02:23:07.841Z,79.60
2023-04-06T02:25:34.761Z,79.50
2023-04-06T02:28:01.957Z,79.60
2023-04-06T02:30:30.005Z,79.50
2023-04-06T02:32:57.140Z,79.60
2023-04-06T02:35:24.093Z,79.70
2023-04-06T02:37:51.087Z,79.60
2023-04-06T02:40:17.903Z,79.70
2023-04-06T02:42:44.741Z,79.70
2023-04-06T02:45:11.637Z,80.00
2023-04-06T02:47:38.397Z,80.20
2023-04-06T02:50:06.109Z,80.20
2023-04-06T02:52:33.285Z,80.20
2023-04-06T02:55:00.107Z,80.60
2023-04-06T02:57:26.946Z,81.00
2023-04-06T02:59:53.738Z,81.10
2023-04-06T03:02:20.647Z,81.20
2023-04-06T03:04:48.256Z,81.20
2023-04-06T03:07:15.509Z,81.10
2023-04-06T03:09:42.359Z,81.20
2023-04-06T03:12:10.205Z,81.30
2023-04-06T03:14:37.260Z,81.90
2023-04-06T03:17:04.011Z,81.80
2023-04-06T03:19:30.812Z,81.90
2023-04-06T03:21:57.542Z,82.30
2023-04-06T03:24:24.377Z,82.00
2023-04-06T03:26:51.215Z,81.50
2023-04-06T03:29:18.057Z,81.40
2023-04-06T03:31:45.019Z,82.10
2023-04-06T03:34:11.991Z,82.30
2023-04-06T03:36:38.790Z,82.50
2023-04-06T03:39:06.464Z,82.20
2023-04-06T03:41:33.445Z,82.50
2023-04-06T03:44:00.336Z,82.60
2023-04-06T03:46:27.174Z,82.70
2023-04-06T03:48:53.896Z,83.00
2023-04-06T03:51:20.724Z,82.90
2023-04-06T03:53:47.573Z,83.20
2023-04-06T03:56:14.506Z,83.40
2023-04-06T03:58:41.330Z,83.30
2023-04-06T04:01:08.122Z,82.90
2023-04-06T04:03:35.077Z,82.80
2023-04-06T04:06:01.964Z,82.90
2023-04-06T04:08:28.787Z,82.90
2023-04-06T04:10:55.649Z,83.30
2023-04-06T04:13:22.483Z,83.40
2023-04-06T04:15:49.249Z,83.40
2023-04-06T04:18:16.061Z,83.20
2023-04-06T04:20:45.248Z,83.60
2023-04-06T04:23:12.049Z,83.50
2023-04-06T04:25:38.885Z,83.90
2023-04-06T04:28:06.014Z,83.60
2023-04-06T04:30:32.887Z,83.90
2023-04-06T04:32:59.677Z,83.50
2023-04-06T04:35:27.555Z,83.00
2023-04-06T04:37:54.373Z,83.00
2023-04-06T04:40:21.988Z,83.20
2023-04-06T04:42:49.956Z,83.90
2023-04-06T04:45:16.732Z,84.20
2023-04-06T04:47:43.734Z,83.90
2023-04-06T04:50:11.184Z,83.80
2023-04-06T04:52:39.028Z,83.50
2023-04-06T04:55:06.264Z,83.60
2023-04-06T04:57:33.071Z,83.80
2023-04-06T04:59:59.791Z,83.50
2023-04-06T05:02:26.787Z,83.70
2023-04-06T05:04:53.900Z,83.90
2023-04-06T05:07:21.763Z,83.80
2023-04-06T05:09:48.874Z,84.30
2023-04-06T05:12:16.069Z,84.10
2023-04-06T05:14:43.082Z,84.30
2023-04-06T05:17:09.905Z,84.30
2023-04-06T05:19:36.847Z,84.40
2023-04-06T05:22:03.678Z,84.10
2023-04-06T05:24:30.743Z,84.20
2023-04-06T05:26:57.670Z,84.70
2023-04-06T05:29:24.560Z,85.30
2023-04-06T05:31:52.410Z,85.60
2023-04-06T05:34:19.273Z,84.80
2023-04-06T05:36:46.233Z,85.10
2023-04-06T05:39:13.845Z,84.90
2023-04-06T05:41:40.841Z,84.70
2023-04-06T05:44:07.756Z,84.70
2023-04-06T05:46:34.699Z,84.70
2023-04-06T05:49:01.596Z,85.00
2023-04-06T05:51:28.490Z,84.70
2023-04-06T05:53:55.249Z,84.90
2023-04-06T05:56:22.258Z,84.80
2023-04-06T05:58:49.212Z,84.70
2023-04-06T06:01:16.665Z,84.60
2023-04-06T06:03:43.442Z,84.90
2023-04-06T06:06:10.426Z,85.00
2023-04-06T06:08:37.217Z,84.70
2023-04-06T06:11:04.331Z,84.80
2023-04-06T06:13:31.202Z,84.60
2023-04-06T06:15:58.557Z,85.00
2023-04-06T06:18:25.455Z,84.70
2023-04-06T06:20:52.486Z,84.30
2023-04-06T06:23:19.362Z,84.70
2023-04-06T06:25:46.322Z,84.60
2023-04-06T06:28:13.537Z,83.90
2023-04-06T06:30:40.353Z,83.70
2023-04-06T06:33:07.090Z,83.80
2023-04-06T06:35:33.894Z,83.90
2023-04-06T06:38:00.771Z,84.00
2023-04-06T06:40:28.154Z,83.40
2023-04-06T06:42:55.235Z,83.40
2023-04-06T06:45:22.518Z,83.50
2023-04-06T06:47:49.481Z,83.00
2023-04-06T06:50:16.480Z,83.10
2023-04-06T06:52:43.697Z,82.40
2023-04-06T06:55:11.861Z,81.90
2023-04-06T06:57:39.389Z,81.60
2023-04-06T07:00:08.408Z,81.10
2023-04-06T07:02:36.794Z,81.00
2023-04-06T07:05:15.989Z,80.50
2023-04-06T07:07:51.702Z,80.50
2023-04-06T07:10:18.611Z,80.00
2023-04-06T07:12:45.444Z,80.00
2023-04-06T07:15:12.336Z,79.90
2023-04-06T07:17:39.299Z,79.70
2023-04-06T07:20:06.784Z,79.50
2023-04-06T07:22:33.885Z,79.40
2023-04-06T07:25:00.753Z,79.10
2023-04-06T07:27:27.520Z,79.10
2023-04-06T07:29:54.359Z,78.90
2023-04-06T07:32:21.192Z,78.90
2023-04-06T07:34:48.122Z,78.90
2023-04-06T07:37:14.988Z,78.70
2023-04-06T07:39:41.856Z,79.00
2023-04-06T07:42:08.693Z,78.80
2023-04-06T07:44:35.607Z,79.00
2023-04-06T07:47:02.556Z,78.80
2023-04-06T07:49:29.382Z,78.90
2023-04-06T07:51:57.045Z,78.70
2023-04-06T07:54:23.830Z,78.70
2023-04-06T07:56:50.580Z,78.20
2023-04-06T07:59:17.361Z,78.30
2023-04-06T08:01:44.209Z,78.40
2023-04-06T08:04:11.234Z,78.90
2023-04-06T08:06:38.361Z,78.60
2023-04-06T08:09:05.142Z,78.70
2023-04-06T08:11:32.012Z,78.30
2023-04-06T08:13:59.028Z,78.90
2023-04-06T08:16:26.189Z,78.40
2023-04-06T08:18:53.072Z,77.80
2023-04-06T08:21:19.864Z,77.50
2023-04-06T08:23:47.175Z,77.60
2023-04-06T08:26:14.052Z,77.70
2023-04-06T08:28:41.110Z,77.90
2023-04-06T08:31:08.164Z,77.90
2023-04-06T08:33:40.188Z,78.20
2023-04-06T08:36:14.894Z,78.30
2023-04-06T08:38:42.472Z,78.50
2023-04-06T08:41:14.184Z,78.00
2023-04-06T08:44:01.277Z,78.30
2023-04-06T08:46:32.419Z,78.40
2023-04-06T08:49:03.224Z,78.50
2023-04-06T08:51:31.492Z,77.90
2023-04-06T08:53:59.588Z,77.20
2023-04-06T08:56:27.776Z,75.90
2023-04-06T08:58:56.200Z,74.00
2023-04-06T09:01:27.250Z,73.00
2023-04-06T09:03:59.367Z,71.50
2023-04-06T09:06:29.603Z,71.60
2023-04-06T09:08:56.634Z,72.00
2023-04-06T09:11:23.632Z,70.10
2023-04-06T09:13:58.378Z,69.50
2023-04-06T09:16:26.869Z,69.10
2023-04-06T09:18:53.773Z,68.80
2023-04-06T09:21:22.805Z,69.00
2023-04-06T09:24:02.954Z,67.90
2023-04-06T09:26:30.426Z,69.20
2023-04-06T09:29:00.534Z,68.20
2023-04-06T09:31:34.141Z,66.10
2023-04-06T09:34:01.687Z,66.30
2023-04-06T09:36:36.628Z,67.10
2023-04-06T09:39:05.312Z,64.90
2023-04-06T09:41:36.628Z,64.70
2023-04-06T09:44:10.905Z,64.00
2023-04-06T09:46:55.116Z,63.90
2023-04-06T09:49:28.238Z,62.30
2023-04-06T09:52:00.266Z,60.20
2023-04-06T09:54:31.767Z,59.80
2023-04-06T09:57:19.432Z,60.00
2023-04-06T10:00:15.287Z,59.10
2023-04-06T10:03:11.220Z,58.80
2023-04-06T10:05:51.264Z,57.80
2023-04-06T10:08:20.055Z,58.30
2023-04-06T10:10:47.866Z,58.90
2023-04-06T10:13:14.808Z,59.40
2023-04-06T10:15:42.619Z,58.70
2023-04-06T10:18:10.011Z,58.90
2023-04-06T10:20:42.146Z,58.40
2023-04-06T10:23:24.104Z,57.80
2023-04-06T10:25:59.150Z,57.30
2023-04-06T10:28:31.144Z,54.20
2023-04-06T10:30:59.797Z,53.50
2023-04-06T10:33:27.176Z,54.00
2023-04-06T10:35:54.154Z,53.40
2023-04-06T10:38:23.064Z,53.00
2023-04-06T10:40:49.945Z,53.40
2023-04-06T10:43:22.093Z,52.90
2023-04-06T10:46:00.825Z,52.30
2023-04-06T10:48:40.044Z,53.00
2023-04-06T10:51:14.407Z,53.40
2023-04-06T10:53:49.429Z,53.00
2023-04-06T10:56:22.076Z,52.30
2023-04-06T10:58:56.837Z,51.90
2023-04-06T11:01:26.086Z,51.50
2023-04-06T11:04:00.486Z,52.20
2023-04-06T11:06:30.220Z,51.30
2023-04-06T11:08:57.852Z,49.70
2023-04-06T11:11:27.494Z,50.30
2023-04-06T11:13:55.791Z,50.20
2023-04-06T11:16:27.681Z,50.70
2023-04-06T11:19:13.440Z,48.90
2023-04-06T11:21:44.799Z,48.30
2023-04-06T11:24:12.974Z,49.90
2023-04-06T11:26:44.894Z,49.30
2023-04-06T11:29:13.344Z,49.00
2023-04-06T11:31:48.342Z,47.80
2023-04-06T11:34:25.531Z,47.70
2023-04-06T11:37:00.720Z,48.70
2023-04-06T11:39:29.318Z,46.90
2023-04-06T11:42:00.859Z,47.50
2023-04-06T11:44:35.364Z,47.10
2023-04-06T11:47:04.090Z,47.70
2023-04-06T11:49:31.989Z,48.20
2023-04-06T11:52:00.749Z,47.40
2023-04-06T11:54:35.912Z,47.30
2023-04-06T11:57:03.972Z,45.80
2023-04-06T11:59:31.016Z,45.20
2023-04-06T12:02:02.075Z,46.10
2023-04-06T12:04:29.120Z,46.10
2023-04-06T12:06:56.296Z,46.30
2023-04-06T12:09:23.154Z,45.60
2023-04-06T12:11:50.121Z,45.90
2023-04-06T12:14:17.589Z,46.70
2023-04-06T12:16:44.928Z,46.10
2023-04-06T12:19:12.149Z,46.30
2023-04-06T12:21:38.990Z,45.50
2023-04-06T12:24:06.724Z,45.80
2023-04-06T12:26:34.252Z,45.70
2023-04-06T12:29:19.198Z,45.70
2023-04-06T12:31:46.379Z,45.80
2023-04-06T12:34:13.410Z,46.20
2023-04-06T12:36:40.541Z,45.90
2023-04-06T12:39:07.700Z,46.00
2023-04-06T12:41:35.170Z,45.50
2023-04-06T12:44:02.965Z,45.00
2023-04-06T12:46:33.489Z,45.10
2023-04-06T12:49:00.779Z,44.00
2023-04-06T12:51:32.050Z,44.20
2023-04-06T12:53:58.892Z,43.20
2023-04-06T12:56:26.667Z,43.50
2023-04-06T12:58:54.085Z,44.30
2023-04-06T13:01:21.349Z,44.10
2023-04-06T13:03:48.261Z,43.50
2023-04-06T13:06:16.309Z,43.10
2023-04-06T13:08:44.087Z,43.10
2023-04-06T13:11:11.209Z,43.00
2023-04-06T13:13:38.430Z,43.60
2023-04-06T13:16:08.655Z,43.70
2023-04-06T13:18:37.752Z,43.80
2023-04-06T13:21:05.642Z,43.90
2023-04-06T13:23:32.602Z,43.70
2023-04-06T13:26:01.720Z,43.80
2023-04-06T13:28:28.845Z,43.70
2023-04-06T13:30:56.320Z,42.70
2023-04-06T13:33:23.516Z,42.20
2023-04-06T13:35:50.552Z,42.30
2023-04-06T13:38:17.469Z,42.80
2023-04-06T13:40:45.006Z,42.70
2023-04-06T13:43:11.886Z,42.50
2023-04-06T13:45:39.646Z,41.90
2023-04-06T13:48:06.943Z,41.70
2023-04-06T13:50:34.284Z,41.60
2023-04-06T13:53:01.279Z,41.20
2023-04-06T13:55:28.063Z,42.10
2023-04-06T13:57:55.991Z,42.30
2023-04-06T14:00:23.022Z,42.30
2023-04-06T14:02:49.943Z,42.70
2023-04-06T14:05:16.919Z,43.30
2023-04-06T14:07:43.648Z,43.20
2023-04-06T14:10:14.800Z,43.10
2023-04-06T14:12:45.757Z,43.60
2023-04-06T14:15:13.264Z,43.80
2023-04-06T14:17:40.655Z,43.90
2023-04-06T14:20:08.316Z,43.70
2023-04-06T14:22:35.295Z,43.70
2023-04-06T14:25:02.167Z,43.60
2023-04-06T14:27:28.888Z,43.90
2023-04-06T14:29:56.002Z,43.70
2023-04-06T14:32:22.989Z,44.10
2023-04-06T14:34:49.861Z,44.20
2023-04-06T14:37:18.470Z,44.30
2023-04-06T14:39:45.548Z,44.30
2023-04-06T14:42:12.376Z,44.30
2023-04-06T14:44:43.631Z,44.70
2023-04-06T14:47:11.194Z,44.30
2023-04-06T14:49:38.187Z,44.00
2023-04-06T14:52:05.722Z,44.20
2023-04-06T14:54:32.596Z,44.50
2023-04-06T14:56:59.399Z,44.60
2023-04-06T14:59:26.222Z,44.50
2023-04-06T15:01:53.126Z,44.20
2023-04-06T15:04:20.097Z,43.20
2023-04-06T15:06:46.833Z,43.70
2023-04-06T15:09:13.722Z,44.00
2023-04-06T15:11:40.690Z,43.90
2023-04-06T15:14:07.795Z,43.90
2023-04-06T15:16:34.716Z,44.20
2023-04-06T15:19:02.495Z,43.90
2023-04-06T15:21:29.287Z,43.90
2023-04-06T15:23:56.611Z,44.00
2023-04-06T15:26:23.584Z,46.20
2023-04-06T15:28:50.650Z,45.20
2023-04-06T15:31:28.700Z,44.90
2023-04-06T15:34:03.190Z,44.70
2023-04-06T15:36:31.034Z,44.50
2023-04-06T15:39:01.809Z,44.10
2023-04-06T15:41:28.631Z,44.70
2023-04-06T15:43:56.059Z,44.20
2023-04-06T15:46:23.160Z,44.60
2023-04-06T15:48:49.965Z,42.80
2023-04-06T15:51:17.687Z,43.60
2023-04-06T15:53:45.386Z,44.30
2023-04-06T15:56:14.350Z,44.60
2023-04-06T15:58:42.028Z,44.90
2023-04-06T16:01:16.741Z,44.80
2023-04-06T16:03:44.446Z,44.80
2023-04-06T16:06:12.057Z,45.20
2023-04-06T16:08:41.020Z,45.50
2023-04-06T16:11:08.318Z,45.50
2023-04-06T16:13:36.123Z,45.50
2023-04-06T16:16:04.255Z,45.10
2023-04-06T16:18:32.548Z,45.10
2023-04-06T16:21:01.141Z,45.50
2023-04-06T16:23:28.092Z,45.80
2023-04-06T16:25:54.997Z,45.80
2023-04-06T16:28:23.280Z,45.90
2023-04-06T16:30:50.145Z,46.20
2023-04-06T16:33:19.365Z,46.10
2023-04-06T16:35:47.242Z,46.30
2023-04-06T16:38:14.437Z,46.40
2023-04-06T16:40:41.584Z,46.60
2023-04-06T16:43:09.921Z,46.30
2023-04-06T16:45:38.007Z,46.60
2023-04-06T16:48:05.093Z,46.60
2023-04-06T16:50:31.985Z,46.60
2023-04-06T16:52:58.892Z,46.90
2023-04-06T16:55:25.717Z,47.20
2023-04-06T16:57:55.988Z,47.40
2023-04-06T17:00:23.483Z,47.50
2023-04-06T17:02:50.635Z,47.60
2023-04-06T17:05:24.433Z,47.60
2023-04-06T17:07:51.622Z,47.90
2023-04-06T17:10:24.034Z,48.30
2023-04-06T17:13:00.650Z,49.00
2023-04-06T17:15:29.324Z,69.70
2023-04-06T17:17:56.519Z,75.20
2023-04-06T17:20:23.544Z,72.10
2023-04-06T17:22:50.533Z,67.20
2023-04-06T17:25:17.502Z,65.90
2023-04-06T17:27:44.441Z,69.80
2023-04-06T17:30:12.418Z,56.60
2023-04-06T17:32:39.355Z,53.70
2023-04-06T17:35:06.644Z,51.70
2023-04-06T17:37:33.869Z,51.30
2023-04-06T17:40:00.619Z,50.60
2023-04-06T17:42:27.601Z,49.70
2023-04-06T17:44:54.430Z,49.30
2023-04-06T17:47:21.330Z,49.30
2023-04-06T17:49:49.137Z,49.20
2023-04-06T17:52:16.068Z,48.30
2023-04-06T17:54:42.955Z,48.80
2023-04-06T17:57:09.786Z,48.90
2023-04-06T17:59:36.629Z,49.10
2023-04-06T18:02:04.271Z,48.60
2023-04-06T18:04:31.537Z,48.10
2023-04-06T18:06:58.456Z,48.50
2023-04-06T18:11:52.974Z,48.70
2023-04-06T18:14:19.699Z,49.00
2023-04-06T18:16:46.504Z,49.00
2023-04-06T18:19:13.368Z,48.70
2023-04-06T18:21:40.196Z,49.00
2023-04-06T18:24:08.100Z,49.60
2023-04-06T18:26:36.749Z,49.90
2023-04-06T18:29:03.816Z,50.10
2023-04-06T18:31:30.835Z,50.60
2023-04-06T18:33:58.146Z,51.20
2023-04-06T18:36:26.478Z,51.20
2023-04-06T18:38:53.364Z,51.50
2023-04-06T18:41:22.435Z,51.70
2023-04-06T18:43:49.539Z,52.00
2023-04-06T18:46:19.507Z,52.10
2023-04-06T18:48:46.465Z,52.40
2023-04-06T18:51:13.306Z,52.60
2023-04-06T18:53:40.677Z,52.70
2023-04-06T18:56:15.683Z,52.70
2023-04-06T18:58:42.580Z,52.80
2023-04-06T19:01:09.331Z,52.20
2023-04-06T19:03:37.129Z,51.90
2023-04-06T19:06:10.342Z,51.80
2023-04-06T19:08:37.093Z,51.80
2023-04-06T19:11:07.870Z,51.90
2023-04-06T19:13:35.639Z,51.90
2023-04-06T19:16:02.483Z,52.60
2023-04-06T19:18:29.544Z,53.20
2023-04-06T19:20:56.287Z,53.10
2023-04-06T19:23:23.867Z,52.70
2023-04-06T19:25:52.708Z,53.40
2023-04-06T19:28:20.584Z,53.00
2023-04-06T19:30:47.452Z,53.20
2023-04-06T19:33:16.344Z,53.30
2023-04-06T19:35:43.197Z,52.40
2023-04-06T19:38:10.035Z,52.40
2023-04-06T19:40:36.781Z,52.80
2023-04-06T19:43:03.492Z,52.40
2023-04-06T19:45:30.255Z,52.30
2023-04-06T19:47:57.126Z,52.60
2023-04-06T19:50:24.108Z,52.40
2023-04-06T19:52:53.237Z,52.20
2023-04-06T19:55:20.007Z,52.10
2023-04-06T19:57:46.789Z,52.60
2023-04-06T20:00:13.973Z,52.70
2023-04-06T20:02:41.048Z,52.80
2023-04-06T20:05:08.315Z,53.00
2023-04-06T20:07:37.550Z,53.00
2023-04-06T20:10:06.029Z,53.40
2023-04-06T20:12:32.975Z,53.60
2023-04-06T20:14:59.749Z,53.60
2023-04-06T20:17:26.783Z,54.10
2023-04-06T20:19:54.908Z,54.30
2023-04-06T20:22:21.636Z,54.90
2023-04-06T20:24:48.491Z,55.10
2023-04-06T20:27:18.985Z,55.40
2023-04-06T20:29:45.927Z,55.60
2023-04-06T20:32:14.444Z,56.00
2023-04-06T20:34:41.475Z,56.30
2023-04-06T20:37:08.915Z,57.00
2023-04-06T20:39:36.857Z,57.60
2023-04-06T20:42:03.835Z,58.10
2023-04-06T20:44:31.336Z,58.50
2023-04-06T20:46:58.133Z,58.80
2023-04-06T20:49:27.835Z,59.20
2023-04-06T20:51:57.058Z,59.70
2023-04-06T20:54:26.201Z,60.10
2023-04-06T20:56:53.076Z,60.80
2023-04-06T20:59:19.795Z,61.40
2023-04-06T21:01:46.727Z,61.50
2023-04-06T21:04:18.464Z,62.20
2023-04-06T21:06:49.553Z,62.80
2023-04-06T21:09:16.707Z,63.30
2023-04-06T21:11:43.659Z,64.20
2023-04-06T21:14:11.064Z,64.90
2023-04-06T21:16:37.991Z,65.00
2023-04-06T21:19:04.936Z,65.40
2023-04-06T21:21:31.723Z,65.70
2023-04-06T21:23:58.552Z,65.90
2023-04-06T21:26:25.670Z,66.50
2023-04-06T21:28:52.400Z,66.80
2023-04-06T21:31:21.689Z,67.30
2023-04-06T21:33:49.021Z,67.90
2023-04-06T21:36:16.375Z,68.40
2023-04-06T21:38:43.564Z,68.90
2023-04-06T21:41:10.871Z,69.80
2023-04-06T21:43:37.685Z,70.70
2023-04-06T21:46:04.924Z,71.60
2023-04-06T21:48:41.017Z,72.10
2023-04-06T21:51:14.269Z,72.90
2023-04-06T21:53:45.490Z,74.00
2023-04-06T21:56:18.450Z,74.70
2023-04-06T21:58:48.355Z,75.20
2023-04-06T22:01:27.820Z,76.00
2023-04-06T22:04:08.514Z,76.50
2023-04-06T22:06:40.927Z,77.40
2023-04-06T22:09:10.624Z,78.50
2023-04-06T22:11:42.064Z,79.60
2023-04-06T22:14:17.890Z,80.90
2023-04-06T22:16:55.113Z,82.60
2023-04-06T22:19:25.946Z,84.00
2023-04-06T22:21:52.679Z,85.20
2023-04-06T22:24:25.023Z,86.30
2023-04-06T22:26:55.175Z,87.40
2023-04-06T22:29:24.723Z,89.20
2023-04-06T22:31:56.283Z,90.00
2023-04-06T22:34:23.584Z,90.30
2023-04-06T22:37:20.805Z,91.00
2023-04-06T22:39:47.653Z,91.40
2023-04-06T22:42:20.000Z,91.80
2023-04-06T22:44:53.393Z,92.00
2023-04-06T22:47:26.313Z,92.00
2023-04-06T22:50:00.322Z,92.40
2023-04-06T22:52:30.013Z,93.10
2023-04-06T22:55:03.520Z,93.20
2023-04-06T22:57:30.245Z,93.30
2023-04-06T22:59:57.111Z,93.80
2023-04-06T23:02:23.972Z,93.20
2023-04-06T23:04:55.234Z,93.80
2023-04-06T23:07:21.994Z,93.50
2023-04-06T23:10:07.098Z,93.70
2023-04-06T23:12:36.732Z,94.00
2023-04-06T23:15:06.326Z,94.10
2023-04-06T23:17:42.122Z,94.20
2023-04-06T23:20:16.036Z,94.20
2023-04-06T23:22:45.172Z,94.60
2023-04-06T23:25:24.238Z,94.60
2023-04-06T23:28:01.189Z,94.70
2023-04-06T23:30:34.160Z,94.80
2023-04-06T23:33:44.952Z,95.00
2023-04-06T23:36:32.063Z,95.20
2023-04-06T23:39:07.603Z,95.40
2023-04-06T23:41:39.913Z,95.50
2023-04-06T23:44:15.526Z,95.40
2023-04-06T23:46:42.364Z,95.60
2023-04-06T23:49:14.491Z,95.70
2023-04-06T23:51:53.303Z,95.70
2023-04-06T23:54:32.508Z,95.90
2023-04-06T23:57:04.316Z,96.00
2023-04-06T23:59:36.369Z,96.00
